Terminal Aerodrome Forecast
Issued by NWS Riverton, WY

Home | Current Version | Previous Version | Text Only | Print | Product List | Glossary On
Versions: 1 2 3 4 5 6 7 8 9 10 11 12 13 14 15 16
000
FTUS45 KRIW 260526
TAFRIW
TAF
KRIW 260526Z 2606/2706 04008KT P6SM BKN060
     FM260800 VRB06KT P6SM SCT070
     FM261600 08010KT P6SM VCSH SCT030 OVC050
     FM261900 02012KT 5SM -RA SCT013 OVC025
     FM270000 03010KT P6SM VCSH SCT020 OVC035=

USA.gov is the U.S. government's official web portal to all federal, state and local government web resources and services.